TimeADT,TemperatureF,Dew PointF,Humidity,Sea Level PressureIn,VisibilityMPH,Wind Direction,Wind SpeedMPH,Gust SpeedMPH,PrecipitationIn,Events,Conditions,WindDirDegrees,DateUTC
12:00 AM,44.6,44.6,100,30.04,4.0,North,3.5,-,N/A,,Light Drizzle,360,2013-05-28 03:00:00
1:00 AM,44.6,44.6,100,30.04,12.0,NE,4.6,-,N/A,,Overcast,40,2013-05-28 04:00:00
1:22 AM,44.6,44.6,100,30.04,11.0,East,3.5,-,N/A,,Overcast,90,2013-05-28 04:22:00
2:00 AM,44.6,44.6,100,30.05,12.0,South,3.5,-,N/A,,Overcast,190,2013-05-28 05:00:00
3:00 AM,44,44,100,30.05,10,South,4.6,,,,Partly Cloudy,170,2013-05-28 06:00:00
3:00 AM,44.6,44.6,100,30.05,10.0,SSE,4.6,-,N/A,,Overcast,160,2013-05-28 06:00:00
3:49 AM,42.8,42.8,100,30.05,12.0,South,4.6,-,N/A,,Mostly Cloudy,190,2013-05-28 06:49:00
4:00 AM,42.8,42.8,100,30.05,12.0,South,3.5,-,N/A,,Mostly Cloudy,190,2013-05-28 07:00:00
5:00 AM,44.6,42.8,93,30.07,15.0,WSW,6.9,-,N/A,,Mostly Cloudy,250,2013-05-28 08:00:00
5:49 AM,44.6,42.8,93,30.09,15.0,NW,11.5,18.4,N/A,Rain,Light Rain Showers,320,2013-05-28 08:49:00
6:00 AM,44.6,42.8,93,30.10,15.0,NW,11.5,-,N/A,Rain,Light Rain Showers,320,2013-05-28 09:00:00
6:24 AM,42.8,42.8,100,30.12,15.0,NW,9.2,-,N/A,,Mostly Cloudy,320,2013-05-28 09:24:00
7:00 AM,42.8,42.8,100,30.13,15.0,NNW,6.9,-,N/A,,Mostly Cloudy,330,2013-05-28 10:00:00
8:00 AM,44.6,42.8,93,30.15,15.0,NW,4.6,-,N/A,,Overcast,310,2013-05-28 11:00:00
9:00 AM,46,42,80,30.17,15,NW,10.4,,,,Partly Cloudy,320,2013-05-28 12:00:00
9:00 AM,46.4,41.0,81,30.17,15.0,NW,9.2,-,N/A,,Mostly Cloudy,310,2013-05-28 12:00:00
10:00 AM,46.4,41.0,81,30.17,15.0,NW,10.4,-,N/A,,Mostly Cloudy,320,2013-05-28 13:00:00
11:00 AM,48.2,41.0,76,30.20,15.0,NNW,10.4,19.6,N/A,,Mostly Cloudy,340,2013-05-28 14:00:00
12:00 PM,48.2,37.4,66,30.22,15.0,NNW,12.7,24.2,N/A,,Mostly Cloudy,330,2013-05-28 15:00:00
1:00 PM,48.2,39.2,71,30.23,15.0,NW,11.5,20.7,N/A,,Scattered Clouds,320,2013-05-28 16:00:00
2:00 PM,48.2,35.6,62,30.25,15.0,North,13.8,24.2,N/A,,Scattered Clouds,350,2013-05-28 17:00:00
3:00 PM,50,34,43,30.26,15,NNW,9.2,,,,Scattered Clouds,340,2013-05-28 18:00:00
3:00 PM,50.0,33.8,54,30.26,15.0,North,10.4,-,N/A,,Partly Cloudy,360,2013-05-28 18:00:00
4:00 PM,51.8,35.6,54,30.26,15.0,North,11.5,17.3,N/A,,Partly Cloudy,350,2013-05-28 19:00:00
5:00 PM,50.0,32.0,50,30.27,15.0,North,12.7,19.6,N/A,,Partly Cloudy,10,2013-05-28 20:00:00
6:00 PM,50.0,35.6,58,30.27,15.0,North,11.5,-,N/A,,Partly Cloudy,10,2013-05-28 21:00:00
7:00 PM,48.2,35.6,62,30.28,15.0,NNE,8.1,-,N/A,,Partly Cloudy,30,2013-05-28 22:00:00
8:00 PM,44.6,35.6,71,30.29,15.0,NNE,5.8,-,N/A,,Partly Cloudy,30,2013-05-28 23:00:00
9:00 PM,40,34,72,30.31,15,NE,3.5,,,,Clear,50,2013-05-29 00:00:00
9:00 PM,41.0,33.8,76,30.31,15.0,NE,4.6,-,N/A,,Partly Cloudy,50,2013-05-29 00:00:00
10:00 PM,37.4,32.0,81,30.32,15.0,ENE,3.5,-,N/A,,Clear,70,2013-05-29 01:00:00
11:00 PM,35.6,33.8,93,30.32,15.0,East,3.5,-,N/A,,Clear,80,2013-05-29 02:00:00
11:24 PM,35.6,32.0,87,30.32,15.0,East,4.6,-,N/A,,Clear,90,2013-05-29 02:24:00